createdAt,value
2018-09-04T00:00:35.248Z,1010.82
2018-09-04T00:01:35.274Z,1010.83
2018-09-04T00:02:35.299Z,1010.81
2018-09-04T00:03:35.313Z,1010.78
2018-09-04T00:04:35.339Z,1010.75
2018-09-04T00:05:35.364Z,1010.79
2018-09-04T00:06:35.378Z,1010.77
2018-09-04T00:07:35.404Z,1010.79
2018-09-04T00:08:35.430Z,1010.75
2018-09-04T00:09:35.446Z,1010.69
2018-09-04T00:10:35.468Z,1010.71
2018-09-04T00:11:35.494Z,1010.67
2018-09-04T00:12:35.521Z,1010.69
2018-09-04T00:13:35.535Z,1010.67
2018-09-04T00:14:35.561Z,1010.66
2018-09-04T00:15:35.588Z,1010.63
2018-09-04T00:16:35.601Z,1010.62
2018-09-04T00:17:35.626Z,1010.60
2018-09-04T00:18:35.651Z,1010.62
2018-09-04T00:19:35.667Z,1010.56
2018-09-04T00:20:35.691Z,1010.59
2018-09-04T00:21:35.719Z,1010.55
2018-09-04T00:22:35.731Z,1010.53
2018-09-04T00:23:35.756Z,1010.53
2018-09-04T00:24:35.783Z,1010.55
2018-09-04T00:25:35.796Z,1010.52
2018-09-04T00:26:35.822Z,1010.50
2018-09-04T00:27:35.849Z,1010.51
2018-09-04T00:28:35.861Z,1010.53
2018-09-04T00:29:35.888Z,1010.56
2018-09-04T00:30:35.913Z,1010.50
2018-09-04T00:31:35.942Z,1010.52
2018-09-04T00:32:35.952Z,1010.51
2018-09-04T00:33:35.979Z,1010.54
2018-09-04T00:34:36.005Z,1010.52
2018-09-04T00:35:36.017Z,1010.50
2018-09-04T00:36:36.043Z,1010.53
2018-09-04T00:37:36.070Z,1010.52
2018-09-04T00:38:36.084Z,1010.53
2018-09-04T00:39:36.113Z,1010.50
2018-09-04T00:40:36.136Z,1010.51
2018-09-04T00:41:36.148Z,1010.52
2018-09-04T00:42:36.175Z,1010.55
2018-09-04T00:43:36.201Z,1010.53
2018-09-04T00:44:36.217Z,1010.55
2018-09-04T00:45:36.240Z,1010.56
2018-09-04T00:46:36.436Z,1010.51
2018-09-04T00:47:36.281Z,1010.53
2018-09-04T00:48:36.306Z,1010.53
2018-09-04T00:49:36.344Z,1010.50
2018-09-04T00:50:36.345Z,1010.57
2018-09-04T00:51:36.372Z,1010.61
2018-09-04T00:52:36.396Z,1010.57
2018-09-04T00:53:36.409Z,1010.59
2018-09-04T00:54:36.436Z,1010.59
2018-09-04T00:55:36.461Z,1010.59
2018-09-04T00:56:36.475Z,1010.61
2018-09-04T00:57:36.502Z,1010.59
2018-09-04T00:58:36.527Z,1010.60
2018-09-04T00:59:36.553Z,1010.63
2018-09-04T01:00:36.566Z,1010.65
2018-09-04T01:01:36.592Z,1010.59
2018-09-04T01:02:36.606Z,1010.61
2018-09-04T01:03:36.633Z,1010.64
2018-09-04T01:04:36.659Z,1010.63
2018-09-04T01:05:36.684Z,1010.61
2018-09-04T01:06:36.698Z,1010.64
2018-09-04T01:07:36.723Z,1010.64
2018-09-04T01:08:36.738Z,1010.61
2018-09-04T01:09:36.764Z,1010.63
2018-09-04T01:10:36.789Z,1010.59
2018-09-04T01:11:36.802Z,1010.57
2018-09-04T01:12:36.841Z,1010.61
2018-09-04T01:13:36.854Z,1010.61
2018-09-04T01:14:36.870Z,1010.64
2018-09-04T01:15:37.195Z,1010.63
2018-09-04T01:16:36.908Z,1010.60
2018-09-04T01:17:36.934Z,1010.66
2018-09-04T01:18:36.966Z,1010.59
2018-09-04T01:19:36.988Z,1010.61
2018-09-04T01:20:36.999Z,1010.60
2018-09-04T01:21:37.024Z,1010.59
2018-09-04T01:22:37.038Z,1010.58
2018-09-04T01:23:37.068Z,1010.62
2018-09-04T01:24:37.092Z,1010.60
2018-09-04T01:25:37.104Z,1010.61
2018-09-04T01:26:37.129Z,1010.58
2018-09-04T01:27:37.158Z,1010.63
2018-09-04T01:28:37.172Z,1010.64
2018-09-04T01:29:37.194Z,1010.61
2018-09-04T01:30:37.220Z,1010.59
2018-09-04T01:31:37.234Z,1010.62
2018-09-04T01:32:37.263Z,1010.63
2018-09-04T01:33:37.286Z,1010.63
2018-09-04T01:34:37.301Z,1010.59
2018-09-04T01:35:37.324Z,1010.63
2018-09-04T01:36:37.339Z,1010.64
2018-09-04T01:37:37.365Z,1010.63
2018-09-04T01:38:37.390Z,1010.63
2018-09-04T01:39:37.417Z,1010.65
2018-09-04T01:40:37.429Z,1010.68
2018-09-04T01:41:37.456Z,1010.67
2018-09-04T01:42:37.469Z,1010.69
2018-09-04T01:43:37.495Z,1010.69
2018-09-04T01:44:37.524Z,1010.67
2018-09-04T01:45:37.538Z,1010.68
2018-09-04T01:46:37.560Z,1010.67
2018-09-04T01:47:37.587Z,1010.68
2018-09-04T01:48:37.601Z,1010.66
2018-09-04T01:49:37.625Z,1010.66
2018-09-04T01:50:37.641Z,1010.66
2018-09-04T01:51:37.666Z,1010.66
2018-09-04T01:52:37.690Z,1010.68
2018-09-04T01:53:37.705Z,1010.70
2018-09-04T01:54:37.734Z,1010.66
2018-09-04T01:55:37.758Z,1010.62
2018-09-04T01:56:37.769Z,1010.67
2018-09-04T01:57:37.796Z,1010.70
2018-09-04T01:58:37.824Z,1010.67
2018-09-04T01:59:37.836Z,1010.70
2018-09-04T02:00:37.861Z,1010.68
2018-09-04T02:01:37.876Z,1010.71
2018-09-04T02:02:37.901Z,1010.72
2018-09-04T02:03:37.927Z,1010.72
2018-09-04T02:04:37.940Z,1010.72
2018-09-04T02:05:37.966Z,1010.71
2018-09-04T02:06:37.992Z,1010.69
2018-09-04T02:07:38.005Z,1010.69
2018-09-04T02:08:38.031Z,1010.67
2018-09-04T02:09:38.046Z,1010.66
2018-09-04T02:10:38.072Z,1010.67
2018-09-04T02:11:38.098Z,1010.65
2018-09-04T02:12:38.110Z,1010.64
2018-09-04T02:13:38.137Z,1010.62
2018-09-04T02:14:38.162Z,1010.65
2018-09-04T02:15:38.176Z,1010.64
2018-09-04T02:16:38.202Z,1010.66
2018-09-04T02:17:38.216Z,1010.65
2018-09-04T02:18:38.242Z,1010.65
2018-09-04T02:19:38.279Z,1010.64
2018-09-04T02:20:38.281Z,1010.61
2018-09-04T02:21:38.310Z,1010.61
2018-09-04T02:22:38.333Z,1010.62
2018-09-04T02:23:38.346Z,1010.56
2018-09-04T02:24:38.372Z,1010.60
2018-09-04T02:25:38.385Z,1010.61
2018-09-04T02:26:38.411Z,1010.55
2018-09-04T02:27:38.438Z,1010.63
2018-09-04T02:28:38.457Z,1010.57
2018-09-04T02:29:38.477Z,1010.57
2018-09-04T02:30:38.491Z,1010.57
2018-09-04T02:31:38.517Z,1010.56
2018-09-04T02:32:38.543Z,1010.56
2018-09-04T02:33:38.558Z,1010.53
2018-09-04T02:34:38.583Z,1010.58
2018-09-04T02:35:38.607Z,1010.56
2018-09-04T02:36:38.625Z,1010.59
2018-09-04T02:37:38.648Z,1010.58
2018-09-04T02:38:38.661Z,1010.59
2018-09-04T02:39:38.685Z,1010.56
2018-09-04T02:40:38.712Z,1010.57
2018-09-04T02:41:38.726Z,1010.56
2018-09-04T02:42:38.752Z,1010.53
2018-09-04T02:43:38.768Z,1010.55
2018-09-04T02:44:38.804Z,1010.57
2018-09-04T02:45:38.816Z,1010.57
2018-09-04T02:46:38.831Z,1010.53
2018-09-04T02:47:38.857Z,1010.54
2018-09-04T02:48:38.869Z,1010.52
2018-09-04T02:49:38.895Z,1010.57
2018-09-04T02:50:38.921Z,1010.56
2018-09-04T02:51:38.936Z,1010.56
2018-09-04T02:52:38.962Z,1010.54
2018-09-04T02:53:38.975Z,1010.57
2018-09-04T02:54:39.000Z,1010.58
2018-09-04T02:55:39.026Z,1010.60
2018-09-04T02:56:39.041Z,1010.57
2018-09-04T02:57:39.069Z,1010.56
2018-09-04T02:58:39.092Z,1010.56
2018-09-04T02:59:39.105Z,1010.55
2018-09-04T03:00:39.132Z,1010.53
2018-09-04T03:01:39.145Z,1010.55
2018-09-04T03:02:39.171Z,1010.57
2018-09-04T03:03:39.197Z,1010.58
2018-09-04T03:04:39.210Z,1010.57
2018-09-04T03:05:39.249Z,1010.58
2018-09-04T03:06:39.250Z,1010.63
2018-09-04T03:07:39.280Z,1010.57
2018-09-04T03:08:39.289Z,1010.58
2018-09-04T03:09:39.314Z,1010.56
2018-09-04T03:10:39.341Z,1010.56
2018-09-04T03:11:39.355Z,1010.55
2018-09-04T03:12:39.381Z,1010.57
2018-09-04T03:13:39.570Z,1010.61
2018-09-04T03:14:39.419Z,1010.62
2018-09-04T03:15:39.445Z,1010.57
2018-09-04T03:16:39.459Z,1010.60
2018-09-04T03:17:39.486Z,1010.57
2018-09-04T03:18:39.512Z,1010.62
2018-09-04T03:19:39.537Z,1010.59
2018-09-04T03:20:39.550Z,1010.61
2018-09-04T03:21:39.565Z,1010.62
2018-09-04T03:22:39.590Z,1010.59
2018-09-04T03:23:39.616Z,1010.59
2018-09-04T03:24:39.630Z,1010.62
2018-09-04T03:25:39.654Z,1010.58
2018-09-04T03:26:39.668Z,1010.57
2018-09-04T03:27:39.695Z,1010.64
2018-09-04T03:28:39.728Z,1010.57
2018-09-04T03:29:39.733Z,1010.63
2018-09-04T03:30:39.759Z,1010.64
2018-09-04T03:31:39.778Z,1010.66
2018-09-04T03:32:39.800Z,1010.62
2018-09-04T03:33:39.825Z,1010.63
2018-09-04T03:34:39.841Z,1010.63
2018-09-04T03:35:39.870Z,1010.62
2018-09-04T03:36:39.921Z,1010.61
2018-09-04T03:37:39.904Z,1010.60
2018-09-04T03:38:39.930Z,1010.58
2018-09-04T03:39:39.942Z,1010.59
2018-09-04T03:40:39.972Z,1010.60
2018-09-04T03:41:39.983Z,1010.55
2018-09-04T03:42:40.009Z,1010.57
2018-09-04T03:43:40.035Z,1010.59
2018-09-04T03:44:40.048Z,1010.59
2018-09-04T03:45:40.075Z,1010.62
2018-09-04T03:46:40.100Z,1010.64
2018-09-04T03:47:40.114Z,1010.62
2018-09-04T03:48:40.132Z,1010.64
2018-09-04T03:49:40.154Z,1010.66
2018-09-04T03:50:40.179Z,1010.68
2018-09-04T03:51:40.193Z,1010.62
2018-09-04T03:52:40.220Z,1010.67
2018-09-04T03:53:40.253Z,1010.67
2018-09-04T03:54:40.257Z,1010.69
2018-09-04T03:55:40.283Z,1010.65
2018-09-04T03:56:40.308Z,1010.67
2018-09-04T03:57:40.323Z,1010.66
2018-09-04T03:58:40.390Z,1010.72
2018-09-04T03:59:40.363Z,1010.68
2018-09-04T04:00:40.392Z,1010.67
2018-09-04T04:01:40.402Z,1010.67
2018-09-04T04:02:40.430Z,1010.67
2018-09-04T04:03:40.454Z,1010.68
2018-09-04T04:04:40.466Z,1010.67
2018-09-04T04:05:40.493Z,1010.65
2018-09-04T04:06:40.506Z,1010.65
2018-09-04T04:07:40.532Z,1010.65
2018-09-04T04:08:40.546Z,1010.70
2018-09-04T04:09:40.572Z,1010.67
2018-09-04T04:10:40.598Z,1010.68
2018-09-04T04:11:40.612Z,1010.70
2018-09-04T04:12:40.638Z,1010.71
2018-09-04T04:13:40.652Z,1010.76
2018-09-04T04:14:40.678Z,1010.76
2018-09-04T04:15:40.702Z,1010.76
2018-09-04T04:16:40.716Z,1010.76
2018-09-04T04:17:40.743Z,1010.73
2018-09-04T04:18:40.757Z,1010.75
2018-09-04T04:19:40.782Z,1010.77
2018-09-04T04:20:40.807Z,1010.73
2018-09-04T04:21:40.821Z,1010.73
2018-09-04T04:22:40.849Z,1010.75
2018-09-04T04:23:40.874Z,1010.75
2018-09-04T04:24:40.890Z,1010.77
2018-09-04T04:25:40.924Z,1010.76
2018-09-04T04:26:40.926Z,1010.76
2018-09-04T04:27:40.953Z,1010.78
2018-09-04T04:28:40.964Z,1010.72
2018-09-04T04:29:40.990Z,1010.75
2018-09-04T04:30:41.018Z,1010.77
2018-09-04T04:31:41.029Z,1010.75
2018-09-04T04:32:41.061Z,1010.74
2018-09-04T04:33:41.070Z,1010.77
2018-09-04T04:34:41.096Z,1010.76
2018-09-04T04:35:41.120Z,1010.77
2018-09-04T04:36:41.138Z,1010.76
2018-09-04T04:37:41.164Z,1010.80
2018-09-04T04:38:41.174Z,1010.77
2018-09-04T04:39:41.213Z,1010.79
2018-09-04T04:40:41.225Z,1010.82
2018-09-04T04:41:41.240Z,1010.86
2018-09-04T04:42:41.267Z,1010.84
2018-09-04T04:43:41.278Z,1010.83
2018-09-04T04:44:41.305Z,1010.85
2018-09-04T04:45:41.331Z,1010.86
2018-09-04T04:46:41.348Z,1010.89
2018-09-04T04:47:41.376Z,1010.89
2018-09-04T04:48:41.385Z,1010.91
2018-09-04T04:49:41.409Z,1010.94
2018-09-04T04:50:41.436Z,1010.95
2018-09-04T04:51:41.449Z,1010.91
2018-09-04T04:52:41.475Z,1010.92
2018-09-04T04:53:41.502Z,1010.90
2018-09-04T04:54:41.514Z,1010.95
2018-09-04T04:55:41.540Z,1010.94
2018-09-04T04:56:41.555Z,1010.93
2018-09-04T04:57:41.585Z,1010.91
2018-09-04T04:58:41.593Z,1010.94
2018-09-04T04:59:41.618Z,1010.93
2018-09-04T05:00:41.634Z,1010.94
2018-09-04T05:01:41.659Z,1010.95
2018-09-04T05:02:41.685Z,1010.98
2018-09-04T05:03:41.700Z,1010.95
2018-09-04T05:04:41.724Z,1010.98
2018-09-04T05:05:41.737Z,1011.01
2018-09-04T05:06:41.767Z,1011.02
2018-09-04T05:07:41.794Z,1011.04
2018-09-04T05:08:41.806Z,1011.04
2018-09-04T05:09:41.828Z,1011.08
2018-09-04T05:10:41.843Z,1011.05
2018-09-04T05:11:42.111Z,1011.04
2018-09-04T05:12:41.895Z,1011.04
2018-09-04T05:13:41.907Z,1011.07
2018-09-04T05:14:41.946Z,1011.09
2018-09-04T05:15:41.959Z,1011.07
2018-09-04T05:16:41.974Z,1011.09
2018-09-04T05:17:42.000Z,1011.10
2018-09-04T05:18:42.013Z,1011.14
2018-09-04T05:19:42.038Z,1011.14
2018-09-04T05:20:42.052Z,1011.10
2018-09-04T05:21:42.078Z,1011.12
2018-09-04T05:22:42.173Z,1011.11
2018-09-04T05:23:42.116Z,1011.08
2018-09-04T05:24:42.142Z,1011.10
2018-09-04T05:25:42.168Z,1011.12
2018-09-04T05:26:42.183Z,1011.10
2018-09-04T05:27:42.208Z,1011.13
2018-09-04T05:28:42.234Z,1011.14
2018-09-04T05:29:42.248Z,1011.14
2018-09-04T05:30:42.274Z,1011.12
2018-09-04T05:31:42.287Z,1011.15
2018-09-04T05:32:42.314Z,1011.21
2018-09-04T05:33:42.327Z,1011.20
2018-09-04T05:34:42.352Z,1011.15
2018-09-04T05:35:42.377Z,1011.14
2018-09-04T05:36:42.444Z,1011.16
2018-09-04T05:37:42.420Z,1011.15
2018-09-04T05:38:42.431Z,1011.18
2018-09-04T05:39:42.457Z,1011.15
2018-09-04T05:40:42.484Z,1011.14
2018-09-04T05:41:42.497Z,1011.18
2018-09-04T05:42:42.523Z,1011.12
2018-09-04T05:43:42.536Z,1011.12
2018-09-04T05:44:42.563Z,1011.16
2018-09-04T05:45:42.588Z,1011.17
2018-09-04T05:46:42.601Z,1011.16
2018-09-04T05:47:42.627Z,1011.15
2018-09-04T05:48:42.642Z,1011.17
2018-09-04T05:49:42.680Z,1011.20
2018-09-04T05:50:42.702Z,1011.16
2018-09-04T05:51:42.717Z,1011.17
2018-09-04T05:52:42.732Z,1011.22
2018-09-04T05:53:42.758Z,1011.17
2018-09-04T05:54:42.775Z,1011.21
2018-09-04T05:55:42.796Z,1011.20
2018-09-04T05:56:42.812Z,1011.16
2018-09-04T05:57:42.842Z,1011.14
2018-09-04T05:58:42.863Z,1011.13
2018-09-04T05:59:42.875Z,1011.13
2018-09-04T06:00:42.902Z,1011.12
2018-09-04T06:01:42.928Z,1011.14
2018-09-04T06:02:42.942Z,1011.10
2018-09-04T06:03:42.967Z,1011.10
2018-09-04T06:04:42.981Z,1011.10
2018-09-04T06:05:43.006Z,1011.10
2018-09-04T06:06:43.033Z,1011.08
2018-09-04T06:07:43.046Z,1011.13
2018-09-04T06:08:43.074Z,1011.10
2018-09-04T06:09:43.099Z,1011.12
2018-09-04T06:10:43.112Z,1011.10
2018-09-04T06:11:43.138Z,1011.11
2018-09-04T06:12:43.163Z,1011.05
2018-09-04T06:13:43.205Z,1011.08
2018-09-04T06:14:43.211Z,1011.03
2018-09-04T06:15:43.217Z,1011.05
2018-09-04T06:16:43.244Z,1011.04
2018-09-04T06:17:43.270Z,1011.05
2018-09-04T06:18:43.282Z,1011.11
2018-09-04T06:19:43.309Z,1011.10
2018-09-04T06:20:43.334Z,1011.08
2018-09-04T06:21:43.347Z,1011.07
2018-09-04T06:22:43.373Z,1011.09
2018-09-04T06:23:43.402Z,1011.09
2018-09-04T06:24:43.412Z,1011.09
2018-09-04T06:25:43.439Z,1011.10
2018-09-04T06:26:43.465Z,1011.10
2018-09-04T06:27:43.479Z,1011.03
2018-09-04T06:28:43.504Z,1011.08
2018-09-04T06:29:43.530Z,1011.12
2018-09-04T06:30:43.543Z,1011.05
2018-09-04T06:31:43.570Z,1011.08
2018-09-04T06:32:43.584Z,1011.05
2018-09-04T06:33:43.622Z,1011.12
2018-09-04T06:34:43.634Z,1011.16
2018-09-04T06:35:43.660Z,1011.15
2018-09-04T06:36:43.747Z,1011.17
2018-09-04T06:37:43.703Z,1011.16
2018-09-04T06:38:43.714Z,1011.17
2018-09-04T06:39:43.740Z,1011.24
2018-09-04T06:40:43.779Z,1011.23
2018-09-04T06:41:43.779Z,1011.24
2018-09-04T06:42:43.807Z,1011.29
2018-09-04T06:43:43.832Z,1011.29
2018-09-04T06:44:43.844Z,1011.30
2018-09-04T06:45:43.870Z,1011.29
2018-09-04T06:46:43.897Z,1011.29
2018-09-04T06:47:43.922Z,1011.27
2018-09-04T06:48:43.936Z,1011.26
2018-09-04T06:49:43.974Z,1011.24
2018-09-04T06:50:43.988Z,1011.22
2018-09-04T06:51:44.000Z,1011.22
2018-09-04T06:52:44.028Z,1011.24
2018-09-04T06:53:44.053Z,1011.22
2018-09-04T06:54:44.135Z,1011.24
2018-09-04T06:55:44.096Z,1011.24
2018-09-04T06:56:44.122Z,1011.27
2018-09-04T06:57:44.154Z,1011.26
2018-09-04T06:58:44.159Z,1011.27
2018-09-04T06:59:44.184Z,1011.31
2018-09-04T07:00:44.212Z,1011.28
2018-09-04T07:01:44.224Z,1011.30
2018-09-04T07:02:44.250Z,1011.26
2018-09-04T07:03:44.276Z,1011.27
2018-09-04T07:04:44.301Z,1011.26
2018-09-04T07:05:44.315Z,1011.25
2018-09-04T07:06:44.340Z,1011.23
2018-09-04T07:07:44.366Z,1011.28
2018-09-04T07:08:44.392Z,1011.23
2018-09-04T07:09:44.418Z,1011.29
2018-09-04T07:10:44.431Z,1011.34
2018-09-04T07:11:44.458Z,1011.29
2018-09-04T07:12:44.485Z,1011.33
2018-09-04T07:13:44.510Z,1011.33
2018-09-04T07:14:44.524Z,1011.35
2018-09-04T07:15:44.549Z,1011.31
2018-09-04T07:16:44.587Z,1011.35
2018-09-04T07:17:44.600Z,1011.33
2018-09-04T07:18:44.615Z,1011.32
2018-09-04T07:19:44.667Z,1011.34
2018-09-04T07:20:44.671Z,1011.31
2018-09-04T07:21:44.692Z,1011.31
2018-09-04T07:22:44.719Z,1011.29
2018-09-04T07:23:44.792Z,1011.27
2018-09-04T07:24:44.760Z,1011.28
2018-09-04T07:25:44.783Z,1011.28
2018-09-04T07:26:44.809Z,1011.30
2018-09-04T07:27:44.824Z,1011.34
2018-09-04T07:28:44.849Z,1011.32
2018-09-04T07:29:44.875Z,1011.35
2018-09-04T07:30:44.900Z,1011.40
2018-09-04T07:31:44.928Z,1011.36
2018-09-04T07:32:44.939Z,1011.34
2018-09-04T07:33:44.965Z,1011.37
2018-09-04T07:34:44.992Z,1011.39
2018-09-04T07:35:45.018Z,1011.37
2018-09-04T07:36:45.045Z,1011.37
2018-09-04T07:37:45.061Z,1011.40
2018-09-04T07:38:45.084Z,1011.37
2018-09-04T07:39:45.109Z,1011.34
2018-09-04T07:40:45.149Z,1011.36
2018-09-04T07:41:45.165Z,1011.37
2018-09-04T07:42:45.188Z,1011.34
2018-09-04T07:43:45.214Z,1011.35
2018-09-04T07:44:45.239Z,1011.38
2018-09-04T07:45:45.267Z,1011.39
2018-09-04T07:46:45.291Z,1011.38
2018-09-04T07:47:45.317Z,1011.40
2018-09-04T07:48:45.330Z,1011.39
2018-09-04T07:49:45.372Z,1011.35
2018-09-04T07:50:45.384Z,1011.33
2018-09-04T07:51:45.421Z,1011.31
2018-09-04T07:52:45.434Z,1011.32
2018-09-04T07:53:45.504Z,1011.30
2018-09-04T07:54:45.492Z,1011.29
2018-09-04T07:55:45.513Z,1011.28
2018-09-04T07:56:45.538Z,1011.30
2018-09-04T07:57:45.565Z,1011.32
2018-09-04T07:58:45.590Z,1011.36
2018-09-04T07:59:45.616Z,1011.28
2018-09-04T08:00:45.663Z,1011.29
2018-09-04T08:01:45.669Z,1011.26
2018-09-04T08:02:45.695Z,1011.30
2018-09-04T08:03:45.719Z,1011.28
2018-09-04T08:04:45.746Z,1011.36
2018-09-04T08:05:45.771Z,1011.33
2018-09-04T08:06:45.798Z,1011.32
2018-09-04T08:07:45.823Z,1011.32
2018-09-04T08:08:45.849Z,1011.28
2018-09-04T08:09:45.864Z,1011.29
2018-09-04T08:10:45.888Z,1011.32
2018-09-04T08:11:45.915Z,1011.33
2018-09-04T08:12:45.942Z,1011.30
2018-09-04T08:13:45.968Z,1011.31
2018-09-04T08:14:45.994Z,1011.29
2018-09-04T08:15:46.020Z,1011.28
2018-09-04T08:16:46.048Z,1011.30
2018-09-04T08:17:46.063Z,1011.26
2018-09-04T08:18:46.097Z,1011.33
2018-09-04T08:19:46.112Z,1011.33
2018-09-04T08:20:46.212Z,1011.28
2018-09-04T08:21:46.163Z,1011.29
2018-09-04T08:22:46.188Z,1011.29
2018-09-04T08:23:46.214Z,1011.30
2018-09-04T08:24:46.230Z,1011.26
2018-09-04T08:25:46.253Z,1011.31
2018-09-04T08:26:46.280Z,1011.26
2018-09-04T08:27:46.305Z,1011.25
2018-09-04T08:28:46.333Z,1011.28
2018-09-04T08:29:46.357Z,1011.31
2018-09-04T08:30:46.384Z,1011.29
2018-09-04T08:31:46.397Z,1011.26
2018-09-04T08:32:46.425Z,1011.24
2018-09-04T08:33:46.448Z,1011.28
2018-09-04T08:34:46.487Z,1011.30
2018-09-04T08:35:46.503Z,1011.25
2018-09-04T08:36:46.527Z,1011.23
2018-09-04T08:37:46.541Z,1011.23
2018-09-04T08:38:46.566Z,1011.20
2018-09-04T08:39:46.592Z,1011.21
2018-09-04T08:40:46.619Z,1011.24
2018-09-04T08:41:46.645Z,1011.24
2018-09-04T08:42:46.670Z,1011.24
2018-09-04T08:43:46.699Z,1011.19
2018-09-04T08:44:46.709Z,1011.19
2018-09-04T08:45:46.734Z,1011.14
2018-09-04T08:46:46.761Z,1011.19
2018-09-04T08:47:46.963Z,1011.15
2018-09-04T08:48:46.812Z,1011.13
2018-09-04T08:49:46.838Z,1011.11
2018-09-04T08:50:46.864Z,1011.09
2018-09-04T08:51:46.890Z,1011.10
2018-09-04T08:52:46.905Z,1011.09
2018-09-04T08:53:46.930Z,1011.08
2018-09-04T08:54:46.957Z,1011.06
2018-09-04T08:55:46.982Z,1011.09
2018-09-04T08:56:47.009Z,1011.06
2018-09-04T08:57:47.035Z,1011.08
2018-09-04T08:58:47.155Z,1011.05
2018-09-04T08:59:47.074Z,1011.06
2018-09-04T09:00:47.099Z,1011.07
2018-09-04T09:01:47.126Z,1011.05
2018-09-04T09:02:47.165Z,1011.08
2018-09-04T09:03:47.239Z,1011.03
2018-09-04T09:04:47.207Z,1011.10
2018-09-04T09:05:47.231Z,1011.06
2018-09-04T09:06:47.254Z,1011.07
2018-09-04T09:07:47.269Z,1011.03
2018-09-04T09:08:47.296Z,1011.07
2018-09-04T09:09:47.320Z,1011.01
2018-09-04T09:10:47.346Z,1011.00
2018-09-04T09:11:47.374Z,1011.03
2018-09-04T09:12:47.398Z,1011.01
2018-09-04T09:13:47.424Z,1010.97
2018-09-04T09:14:47.440Z,1011.00
2018-09-04T09:15:47.463Z,1010.96
2018-09-04T09:16:47.499Z,1010.97
2018-09-04T09:17:47.516Z,1010.95
2018-09-04T09:18:47.541Z,1010.94
2018-09-04T09:19:47.568Z,1010.93
2018-09-04T09:20:47.594Z,1010.95
2018-09-04T09:21:47.620Z,1010.89
2018-09-04T09:22:47.708Z,1010.91
2018-09-04T09:23:47.659Z,1010.88
2018-09-04T09:24:47.686Z,1010.88
2018-09-04T09:25:47.711Z,1010.90
2018-09-04T09:26:47.739Z,1010.88
2018-09-04T09:27:47.762Z,1010.90
2018-09-04T09:28:47.789Z,1010.87
2018-09-04T09:29:47.815Z,1010.82
2018-09-04T09:30:47.841Z,1010.81
2018-09-04T09:31:47.868Z,1010.84
2018-09-04T09:32:47.880Z,1010.83
2018-09-04T09:33:47.905Z,1010.82
2018-09-04T09:34:47.933Z,1010.85
2018-09-04T09:35:47.957Z,1010.79
2018-09-04T09:36:48.108Z,1010.84
2018-09-04T09:37:48.010Z,1010.84
2018-09-04T09:38:48.036Z,1010.78
2018-09-04T09:39:48.074Z,1010.81
2018-09-04T09:40:48.088Z,1010.80
2018-09-04T09:41:48.114Z,1010.77
2018-09-04T09:42:48.139Z,1010.76
2018-09-04T09:43:48.165Z,1010.81
2018-09-04T09:44:48.181Z,1010.77
2018-09-04T09:45:48.206Z,1010.77
2018-09-04T09:46:48.230Z,1010.72
2018-09-04T09:47:48.262Z,1010.74
2018-09-04T09:48:48.285Z,1010.73
2018-09-04T09:49:48.310Z,1010.68
2018-09-04T09:50:48.396Z,1010.69
2018-09-04T09:51:48.362Z,1010.73
2018-09-04T09:52:48.412Z,1010.69
2018-09-04T09:53:48.414Z,1010.68
2018-09-04T09:54:48.473Z,1010.68
2018-09-04T09:55:48.465Z,1010.71
2018-09-04T09:56:48.535Z,1010.79
2018-09-04T09:57:48.517Z,1010.72
2018-09-04T09:58:48.544Z,1010.75
2018-09-04T09:59:48.588Z,1010.73
2018-09-04T10:00:48.581Z,1010.74
2018-09-04T10:01:48.608Z,1010.67
2018-09-04T10:02:48.634Z,1010.69
2018-09-04T10:03:48.690Z,1010.72
2018-09-04T10:04:48.686Z,1010.71
2018-09-04T10:05:48.711Z,1010.70
2018-09-04T10:06:48.739Z,1010.69
2018-09-04T10:07:48.876Z,1010.72
2018-09-04T10:08:48.789Z,1010.72
2018-09-04T10:09:48.826Z,1010.67
2018-09-04T10:10:48.845Z,1010.67
2018-09-04T10:11:48.867Z,1010.65
2018-09-04T10:12:48.893Z,1010.67
2018-09-04T10:13:48.920Z,1010.70
2018-09-04T10:14:48.947Z,1010.66
2018-09-04T10:15:48.971Z,1010.69
2018-09-04T10:16:48.998Z,1010.69
2018-09-04T10:17:49.023Z,1010.64
2018-09-04T10:18:49.048Z,1010.67
2018-09-04T10:19:49.122Z,1010.62
2018-09-04T10:20:49.102Z,1010.70
2018-09-04T10:21:49.131Z,1010.66
2018-09-04T10:22:49.156Z,1010.65
2018-09-04T10:23:49.179Z,1010.68
2018-09-04T10:24:49.203Z,1010.66
2018-09-04T10:25:49.229Z,1010.70
2018-09-04T10:26:49.257Z,1010.64
2018-09-04T10:27:49.282Z,1010.66
2018-09-04T10:28:49.307Z,1010.69
2018-09-04T10:29:49.333Z,1010.66
2018-09-04T10:30:49.361Z,1010.68
2018-09-04T10:31:49.386Z,1010.69
2018-09-04T10:32:49.411Z,1010.68
2018-09-04T10:33:49.440Z,1010.69
2018-09-04T10:34:49.463Z,1010.69
2018-09-04T10:35:49.490Z,1010.67
2018-09-04T10:36:49.527Z,1010.70
2018-09-04T10:37:49.541Z,1010.72
2018-09-04T10:38:49.566Z,1010.73
2018-09-04T10:39:49.593Z,1010.76
2018-09-04T10:40:49.620Z,1010.79
2018-09-04T10:41:49.658Z,1010.79
2018-09-04T10:42:49.684Z,1010.75
2018-09-04T10:43:49.714Z,1010.66
2018-09-04T10:44:49.735Z,1010.66
2018-09-04T10:45:49.762Z,1010.69
2018-09-04T10:46:49.801Z,1010.64
2018-09-04T10:47:49.827Z,1010.65
2018-09-04T10:48:49.851Z,1010.65
2018-09-04T10:49:49.878Z,1010.71
2018-09-04T10:50:49.917Z,1010.74
2018-09-04T10:51:49.943Z,1010.79
2018-09-04T10:52:49.969Z,1010.75
2018-09-04T10:53:49.994Z,1010.78
2018-09-04T10:54:50.032Z,1010.71
2018-09-04T10:55:50.143Z,1010.73
2018-09-04T10:56:50.085Z,1010.68
2018-09-04T10:57:50.175Z,1010.62
2018-09-04T10:58:50.150Z,1010.61
2018-09-04T10:59:50.176Z,1010.62
2018-09-04T11:00:50.213Z,1010.64
2018-09-04T11:01:50.239Z,1010.57
2018-09-04T11:02:50.269Z,1010.62
2018-09-04T11:03:50.306Z,1010.64
2018-09-04T11:04:50.335Z,1010.66
2018-09-04T11:05:50.367Z,1010.69
2018-09-04T11:06:50.410Z,1010.66
2018-09-04T11:07:50.423Z,1010.59
2018-09-04T11:08:50.458Z,1010.58
2018-09-04T11:09:50.587Z,1010.53
2018-09-04T11:10:50.529Z,1010.48
2018-09-04T11:11:50.549Z,1010.45
2018-09-04T11:12:50.591Z,1010.43
2018-09-04T11:13:50.627Z,1010.46
2018-09-04T11:14:50.652Z,1010.43
2018-09-04T11:15:50.691Z,1010.43
2018-09-04T11:16:50.728Z,1010.38
2018-09-04T11:17:50.755Z,1010.44
2018-09-04T11:18:50.798Z,1010.45
2018-09-04T11:19:50.845Z,1010.40
2018-09-04T11:20:50.871Z,1010.37
2018-09-04T11:21:50.909Z,1010.34
2018-09-04T11:22:50.934Z,1010.38
2018-09-04T11:23:51.006Z,1010.31
2018-09-04T11:24:51.011Z,1010.33
2018-09-04T11:25:51.051Z,1010.38
2018-09-04T11:26:51.081Z,1010.38
2018-09-04T11:27:51.130Z,1010.36
2018-09-04T11:28:51.141Z,1010.35
2018-09-04T11:29:51.180Z,1010.36
2018-09-04T11:30:51.217Z,1010.43
2018-09-04T11:31:51.244Z,1010.42
2018-09-04T11:32:51.282Z,1010.47
2018-09-04T11:33:51.320Z,1010.38
2018-09-04T11:34:51.346Z,1010.34
2018-09-04T11:35:51.386Z,1010.37
2018-09-04T11:36:51.414Z,1010.37
2018-09-04T11:37:51.449Z,1010.33
2018-09-04T11:38:51.488Z,1010.37
2018-09-04T11:39:51.514Z,1010.35
2018-09-04T11:40:51.555Z,1010.47
2018-09-04T11:41:51.579Z,1010.42
2018-09-04T11:42:51.616Z,1010.49
2018-09-04T11:43:51.642Z,1010.42
2018-09-04T11:44:51.683Z,1010.45
2018-09-04T11:45:51.709Z,1010.45
2018-09-04T11:46:51.786Z,1010.49
2018-09-04T11:47:51.782Z,1010.44
2018-09-04T11:48:51.808Z,1010.42
2018-09-04T11:49:51.848Z,1010.39
2018-09-04T11:50:51.886Z,1010.38
2018-09-04T11:51:51.913Z,1010.43
2018-09-04T11:52:51.951Z,1010.41
2018-09-04T11:53:51.988Z,1010.47
2018-09-04T11:54:52.029Z,1010.44
2018-09-04T11:55:52.058Z,1010.43
2018-09-04T11:56:52.093Z,1010.38
2018-09-04T11:57:52.132Z,1010.43
2018-09-04T11:58:52.170Z,1010.44
2018-09-04T11:59:52.208Z,1010.45
2018-09-04T12:00:52.234Z,1010.48
2018-09-04T12:01:52.273Z,1010.44
2018-09-04T12:02:52.311Z,1010.45
2018-09-04T12:03:52.362Z,1010.39
2018-09-04T12:04:52.388Z,1010.42
2018-09-04T12:05:52.450Z,1010.41